AAL8126 KORD-OTHH
Flight info
| Callsign | AAL8126 |
|---|---|
| Flight time | N/A |
| Altitude | 33000 |
| Route | RAYNR DCT BRTMN DCT TAAYZ DCT SQUIB DCT HAUCK DCT HRRSH DCT HOCKE DCT ROSVO DCT IGSAS DCT 5230N06000W/N0479F350 DCT LOMSI/M084F360 DCT 55N050W 56N040W 57N030W 57N020W DCT PIKIL DCT SOVED/N0477F370 DCT KUGUR DCT BELZU DCT MASOP DCT BELOX L603 DOLAS DCT NAVPI DCT OTMEC DCT TIVUN DCT ESAMA DCT OSBIT DCT BARSU DCT MOOCE DCT RUDNO DCT DEXIT DCT ARSIN/N0471F390 DCT BABIT DCT OKLOP DCT NISVA DCT RODIP DCT BELGI UT38 VESAR L620 BALMA UR655 CAK UN310 LATEB N310 BASEM R785 RASLI P559 TRF R23 NEVOL N318 VELAL/N0485F410 N318 TAMRO T503 LABIS L604 KFA M691 LADNA N318 HAYYA |
| Aircraft | B772/H-SDE2E3FGHIJ5LORVWXY/LB1D1 |
Departure
| Time | N/A |
|---|---|
| Airport | Chicago O'Hare International Airport (KORD) |
Arrival
| Time | 2026-05-07 05:50 |
|---|---|
| Airport | Hamad International Airport (OTHH) |
| Time | Latitude | Longitude | Altitude | Speed | Heading |
|---|---|---|---|---|---|
| 2026-05-07 01:46 | 42.73134 | 23.10310 | 39078 ft | 496 kts | 139° |
| 2026-05-07 01:46 | 42.70635 | 23.13445 | 39074 ft | 496 kts | 139° |
| 2026-05-07 01:47 | 42.65562 | 23.19795 | 39077 ft | 496 kts | 138° |
| 2026-05-07 01:47 | 42.60480 | 23.26144 | 39082 ft | 496 kts | 138° |
| 2026-05-07 01:48 | 42.55394 | 23.32486 | 39065 ft | 497 kts | 138° |
| 2026-05-07 01:48 | 42.50312 | 23.38809 | 39079 ft | 496 kts | 138° |
| 2026-05-07 01:49 | 42.45227 | 23.45121 | 39093 ft | 496 kts | 138° |
| 2026-05-07 01:49 | 42.40136 | 23.51425 | 39091 ft | 496 kts | 138° |
| 2026-05-07 01:50 | 42.35045 | 23.57714 | 39098 ft | 496 kts | 138° |
| 2026-05-07 01:50 | 42.29981 | 23.63947 | 39099 ft | 496 kts | 138° |
| 2026-05-07 01:51 | 42.24882 | 23.70226 | 39099 ft | 496 kts | 138° |
| 2026-05-07 01:51 | 42.19782 | 23.76489 | 39096 ft | 496 kts | 138° |
| 2026-05-07 01:52 | 42.14680 | 23.82735 | 39103 ft | 496 kts | 138° |
| 2026-05-07 01:52 | 42.09565 | 23.88981 | 39099 ft | 496 kts | 138° |
| 2026-05-07 01:53 | 42.04455 | 23.95209 | 39096 ft | 496 kts | 138° |
| 2026-05-07 01:53 | 41.99328 | 24.01432 | 39099 ft | 496 kts | 138° |
| 2026-05-07 01:54 | 41.94198 | 24.07648 | 39107 ft | 497 kts | 137° |
| 2026-05-07 01:54 | 41.89058 | 24.13887 | 39100 ft | 499 kts | 137° |
| 2026-05-07 01:55 | 41.83899 | 24.20119 | 39103 ft | 499 kts | 138° |
| 2026-05-07 01:55 | 41.78724 | 24.26345 | 39109 ft | 500 kts | 138° |
| 2026-05-07 01:56 | 41.73579 | 24.32530 | 39105 ft | 501 kts | 138° |
| 2026-05-07 01:56 | 41.68390 | 24.38756 | 39131 ft | 501 kts | 138° |
| 2026-05-07 01:57 | 41.63188 | 24.44983 | 39119 ft | 502 kts | 139° |
| 2026-05-07 01:57 | 41.57990 | 24.51202 | 39115 ft | 501 kts | 138° |
| 2026-05-07 01:58 | 41.52793 | 24.57399 | 39117 ft | 500 kts | 139° |
| 2026-05-07 01:58 | 41.47599 | 24.63573 | 39112 ft | 500 kts | 139° |
| 2026-05-07 01:59 | 41.42406 | 24.69735 | 39106 ft | 499 kts | 139° |
| 2026-05-07 01:59 | 41.37352 | 24.76065 | 39104 ft | 499 kts | 135° |
| 2026-05-07 02:00 | 41.32444 | 24.82593 | 39101 ft | 499 kts | 135° |
| 2026-05-07 02:00 | 41.27521 | 24.89096 | 39096 ft | 499 kts | 135° |
| 2026-05-07 02:01 | 41.22570 | 24.95554 | 39093 ft | 499 kts | 136° |
| 2026-05-07 02:01 | 41.17599 | 25.01999 | 39100 ft | 499 kts | 136° |
| 2026-05-07 02:02 | 41.12626 | 25.08431 | 39090 ft | 499 kts | 136° |
| 2026-05-07 02:02 | 41.07681 | 25.14816 | 39085 ft | 499 kts | 136° |
| 2026-05-07 02:03 | 41.02703 | 25.21230 | 39082 ft | 499 kts | 136° |
| 2026-05-07 02:03 | 40.97719 | 25.27638 | 39079 ft | 499 kts | 136° |
| 2026-05-07 02:04 | 40.92733 | 25.34034 | 39076 ft | 499 kts | 136° |
| 2026-05-07 02:04 | 40.87743 | 25.40422 | 39077 ft | 500 kts | 136° |
| 2026-05-07 02:05 | 40.82744 | 25.46807 | 39074 ft | 500 kts | 136° |
| 2026-05-07 02:05 | 40.77743 | 25.53181 | 39074 ft | 500 kts | 136° |
| 2026-05-07 02:06 | 40.72731 | 25.59554 | 39076 ft | 500 kts | 136° |
| 2026-05-07 02:06 | 40.67720 | 25.65913 | 39080 ft | 500 kts | 136° |
| 2026-05-07 02:07 | 40.62698 | 25.72272 | 39071 ft | 501 kts | 136° |
| 2026-05-07 02:07 | 40.55151 | 25.81809 | 39071 ft | 502 kts | 136° |
| 2026-05-07 02:08 | 40.50256 | 25.88347 | 39072 ft | 502 kts | 130° |
| 2026-05-07 02:08 | 40.46320 | 25.95629 | 39075 ft | 502 kts | 121° |
| 2026-05-07 02:09 | 40.42646 | 26.03352 | 39075 ft | 502 kts | 121° |
| 2026-05-07 02:09 | 40.38925 | 26.11112 | 39073 ft | 503 kts | 122° |
| 2026-05-07 02:10 | 40.35170 | 26.18850 | 39074 ft | 503 kts | 122° |
| 2026-05-07 02:10 | 40.31399 | 26.26573 | 39079 ft | 503 kts | 122° |
| 2026-05-07 02:11 | 40.27621 | 26.34290 | 39081 ft | 503 kts | 122° |
| 2026-05-07 02:11 | 40.23834 | 26.42012 | 39077 ft | 504 kts | 122° |
| 2026-05-07 02:12 | 40.20045 | 26.49721 | 39075 ft | 504 kts | 122° |
| 2026-05-07 02:12 | 40.16251 | 26.57421 | 39086 ft | 504 kts | 122° |
| 2026-05-07 02:13 | 40.12450 | 26.65116 | 39081 ft | 504 kts | 122° |
| 2026-05-07 02:13 | 40.08655 | 26.72798 | 39081 ft | 503 kts | 122° |
| 2026-05-07 02:14 | 40.04853 | 26.80461 | 39093 ft | 503 kts | 122° |
| 2026-05-07 02:14 | 40.01687 | 26.86821 | 39098 ft | 502 kts | 122° |
| 2026-05-07 02:15 | 39.97877 | 26.94460 | 39102 ft | 502 kts | 122° |
| 2026-05-07 02:15 | 39.94060 | 27.02088 | 39092 ft | 502 kts | 122° |
| 2026-05-07 02:16 | 39.90242 | 27.09718 | 39102 ft | 502 kts | 122° |
| 2026-05-07 02:16 | 39.86419 | 27.17332 | 39120 ft | 503 kts | 122° |
| 2026-05-07 02:17 | 39.82588 | 27.24946 | 39123 ft | 503 kts | 122° |
| 2026-05-07 02:17 | 39.78744 | 27.32539 | 39122 ft | 503 kts | 122° |
| 2026-05-07 02:18 | 39.74870 | 27.40129 | 39118 ft | 504 kts | 122° |
| 2026-05-07 02:18 | 39.70994 | 27.47713 | 39130 ft | 504 kts | 122° |
| 2026-05-07 02:19 | 39.67143 | 27.55254 | 39123 ft | 505 kts | 122° |
| 2026-05-07 02:19 | 39.63262 | 27.62878 | 39139 ft | 509 kts | 122° |
| 2026-05-07 02:20 | 39.59339 | 27.70571 | 39133 ft | 514 kts | 122° |
| 2026-05-07 02:20 | 39.55369 | 27.78327 | 39136 ft | 518 kts | 122° |
| 2026-05-07 02:21 | 39.51367 | 27.86126 | 39137 ft | 521 kts | 122° |
| 2026-05-07 02:21 | 39.47336 | 27.93960 | 39134 ft | 524 kts | 122° |
| 2026-05-07 02:22 | 39.43287 | 28.01821 | 39132 ft | 526 kts | 122° |
| 2026-05-07 02:22 | 39.39220 | 28.09702 | 39141 ft | 528 kts | 122° |
| 2026-05-07 02:23 | 39.35127 | 28.17615 | 39138 ft | 530 kts | 122° |
| 2026-05-07 02:23 | 39.31022 | 28.25535 | 39135 ft | 531 kts | 122° |
| 2026-05-07 02:24 | 39.26922 | 28.33406 | 39140 ft | 532 kts | 123° |
| 2026-05-07 02:24 | 39.22775 | 28.41329 | 39142 ft | 533 kts | 123° |
| 2026-05-07 02:25 | 39.18618 | 28.49251 | 39163 ft | 534 kts | 123° |
| 2026-05-07 02:25 | 39.14458 | 28.57173 | 39162 ft | 535 kts | 123° |
| 2026-05-07 02:26 | 39.10276 | 28.65110 | 39152 ft | 536 kts | 123° |
| 2026-05-07 02:26 | 39.06091 | 28.73046 | 39179 ft | 536 kts | 123° |
| 2026-05-07 02:27 | 39.01903 | 28.80975 | 39181 ft | 536 kts | 123° |
| 2026-05-07 02:27 | 38.97702 | 28.88902 | 39175 ft | 537 kts | 123° |
| 2026-05-07 02:28 | 38.93519 | 28.96772 | 39187 ft | 537 kts | 123° |
| 2026-05-07 02:28 | 38.89301 | 29.04690 | 39176 ft | 538 kts | 123° |
| 2026-05-07 02:29 | 38.85069 | 29.12614 | 39175 ft | 538 kts | 123° |
| 2026-05-07 02:29 | 38.80843 | 29.20514 | 39178 ft | 538 kts | 123° |
| 2026-05-07 02:30 | 38.76591 | 29.28457 | 39187 ft | 539 kts | 123° |
| 2026-05-07 02:30 | 38.72334 | 29.36370 | 39181 ft | 540 kts | 123° |
| 2026-05-07 02:31 | 38.68069 | 29.44275 | 39175 ft | 539 kts | 124° |
| 2026-05-07 02:31 | 38.63752 | 29.52118 | 39186 ft | 539 kts | 125° |
| 2026-05-07 02:32 | 38.59318 | 29.59863 | 39186 ft | 540 kts | 126° |
| 2026-05-07 02:32 | 38.54877 | 29.67596 | 39180 ft | 540 kts | 125° |
| 2026-05-07 02:33 | 38.50451 | 29.75348 | 39184 ft | 540 kts | 125° |
| 2026-05-07 02:33 | 38.46032 | 29.83091 | 39193 ft | 540 kts | 125° |
| 2026-05-07 02:34 | 38.41623 | 29.90777 | 39189 ft | 540 kts | 126° |
| 2026-05-07 02:34 | 38.37180 | 29.98491 | 39187 ft | 540 kts | 126° |
| 2026-05-07 02:35 | 38.32735 | 30.06208 | 39190 ft | 540 kts | 126° |
| 2026-05-07 02:35 | 38.28290 | 30.13912 | 39194 ft | 540 kts | 126° |
| 2026-05-07 02:36 | 38.23848 | 30.21607 | 39189 ft | 540 kts | 126° |
| 2026-05-07 02:36 | 38.19398 | 30.29297 | 39189 ft | 540 kts | 126° |
| 2026-05-07 02:37 | 38.14945 | 30.36972 | 39190 ft | 540 kts | 126° |
| 2026-05-07 02:37 | 38.10490 | 30.44642 | 39186 ft | 540 kts | 126° |
| 2026-05-07 02:38 | 38.06031 | 30.52299 | 39186 ft | 540 kts | 126° |
| 2026-05-07 02:38 | 38.01555 | 30.59964 | 39175 ft | 540 kts | 126° |
| 2026-05-07 02:39 | 37.97077 | 30.67615 | 39170 ft | 540 kts | 126° |
| 2026-05-07 02:39 | 37.92600 | 30.75262 | 39169 ft | 540 kts | 126° |
| 2026-05-07 02:40 | 37.88123 | 30.82900 | 39156 ft | 540 kts | 126° |
| 2026-05-07 02:40 | 37.83671 | 30.90480 | 39168 ft | 540 kts | 126° |
| 2026-05-07 02:41 | 37.79184 | 30.98100 | 39176 ft | 540 kts | 126° |
| 2026-05-07 02:41 | 37.74685 | 31.05723 | 39164 ft | 541 kts | 126° |
| 2026-05-07 02:42 | 37.70181 | 31.13336 | 39164 ft | 541 kts | 126° |
| 2026-05-07 02:42 | 37.65675 | 31.20935 | 39169 ft | 541 kts | 126° |
| 2026-05-07 02:43 | 37.61159 | 31.28533 | 39171 ft | 542 kts | 127° |
| 2026-05-07 02:43 | 37.56633 | 31.36134 | 39152 ft | 542 kts | 127° |
| 2026-05-07 02:44 | 37.52100 | 31.43726 | 39154 ft | 542 kts | 127° |
| 2026-05-07 02:44 | 37.47563 | 31.51308 | 39151 ft | 542 kts | 127° |
| 2026-05-07 02:45 | 37.43053 | 31.58830 | 39162 ft | 542 kts | 127° |
| 2026-05-07 02:45 | 37.38507 | 31.66397 | 39153 ft | 542 kts | 127° |
| 2026-05-07 02:46 | 37.33950 | 31.73953 | 39160 ft | 542 kts | 127° |
| 2026-05-07 02:46 | 37.29384 | 31.81488 | 39165 ft | 542 kts | 127° |
| 2026-05-07 02:47 | 37.24807 | 31.89025 | 39151 ft | 543 kts | 127° |
| 2026-05-07 02:47 | 37.20228 | 31.96555 | 39157 ft | 542 kts | 127° |
| 2026-05-07 02:48 | 37.15646 | 32.04074 | 39160 ft | 543 kts | 127° |
| 2026-05-07 02:48 | 37.11057 | 32.11589 | 39139 ft | 543 kts | 128° |
| 2026-05-07 02:49 | 37.06461 | 32.19097 | 39151 ft | 543 kts | 128° |
| 2026-05-07 02:49 | 37.01859 | 32.26597 | 39160 ft | 543 kts | 128° |
| 2026-05-07 02:50 | 36.97287 | 32.34035 | 39157 ft | 543 kts | 128° |
| 2026-05-07 02:50 | 36.92675 | 32.41521 | 39156 ft | 543 kts | 128° |
| 2026-05-07 02:51 | 36.88057 | 32.49001 | 39154 ft | 543 kts | 128° |
| 2026-05-07 02:51 | 36.83439 | 32.56467 | 39159 ft | 543 kts | 128° |
| 2026-05-07 02:52 | 36.78819 | 32.63930 | 39165 ft | 543 kts | 129° |
| 2026-05-07 02:52 | 36.74197 | 32.71381 | 39149 ft | 543 kts | 129° |
| 2026-05-07 02:53 | 36.69576 | 32.78815 | 39135 ft | 542 kts | 129° |
| 2026-05-07 02:53 | 36.64956 | 32.86229 | 39150 ft | 541 kts | 129° |
| 2026-05-07 02:54 | 36.60341 | 32.93620 | 39147 ft | 541 kts | 129° |
| 2026-05-07 02:54 | 36.55716 | 33.01009 | 39148 ft | 541 kts | 129° |
| 2026-05-07 02:55 | 36.51089 | 33.08386 | 39132 ft | 541 kts | 129° |
| 2026-05-07 02:55 | 36.46491 | 33.15701 | 39129 ft | 540 kts | 129° |
| 2026-05-07 02:56 | 36.41864 | 33.23050 | 39132 ft | 540 kts | 130° |
| 2026-05-07 02:56 | 36.37228 | 33.30393 | 39127 ft | 540 kts | 130° |
| 2026-05-07 02:57 | 36.32575 | 33.37720 | 39123 ft | 541 kts | 130° |
| 2026-05-07 02:57 | 36.27914 | 33.45039 | 39106 ft | 541 kts | 130° |
| 2026-05-07 02:58 | 36.23247 | 33.52357 | 39116 ft | 541 kts | 130° |
| 2026-05-07 02:58 | 36.18574 | 33.59672 | 39118 ft | 542 kts | 130° |
| 2026-05-07 02:59 | 36.13895 | 33.66981 | 39114 ft | 542 kts | 130° |
| 2026-05-07 02:59 | 36.09207 | 33.74289 | 39106 ft | 542 kts | 130° |
| 2026-05-07 03:00 | 36.04515 | 33.81587 | 39106 ft | 542 kts | 130° |
| 2026-05-07 03:00 | 35.99813 | 33.88887 | 39107 ft | 543 kts | 130° |
| 2026-05-07 03:01 | 35.95124 | 33.96110 | 39095 ft | 542 kts | 133° |
| 2026-05-07 03:01 | 35.89727 | 34.02515 | 39089 ft | 537 kts | 144° |
| 2026-05-07 03:02 | 35.83603 | 34.07659 | 39103 ft | 530 kts | 154° |
| 2026-05-07 03:02 | 35.77225 | 34.12230 | 39106 ft | 531 kts | 153° |
| 2026-05-07 03:03 | 35.70878 | 34.16887 | 39103 ft | 531 kts | 153° |
| 2026-05-07 03:03 | 35.64530 | 34.21553 | 39104 ft | 531 kts | 153° |
| 2026-05-07 03:04 | 35.58173 | 34.26181 | 39093 ft | 531 kts | 154° |
| 2026-05-07 03:04 | 35.51818 | 34.30799 | 39104 ft | 531 kts | 154° |
| 2026-05-07 03:05 | 35.45514 | 34.35378 | 39110 ft | 530 kts | 154° |
| 2026-05-07 03:05 | 35.39172 | 34.39979 | 39096 ft | 530 kts | 154° |
| 2026-05-07 03:06 | 35.32831 | 34.44570 | 39107 ft | 529 kts | 154° |
| 2026-05-07 03:06 | 35.26490 | 34.49152 | 39096 ft | 528 kts | 154° |
| 2026-05-07 03:07 | 35.20165 | 34.53715 | 39105 ft | 528 kts | 154° |
| 2026-05-07 03:07 | 35.13841 | 34.58269 | 39108 ft | 527 kts | 154° |
| 2026-05-07 03:08 | 35.07525 | 34.62809 | 39081 ft | 527 kts | 154° |
| 2026-05-07 03:08 | 35.01214 | 34.67338 | 39092 ft | 525 kts | 154° |
| 2026-05-07 03:09 | 34.94916 | 34.71851 | 39107 ft | 525 kts | 154° |
| 2026-05-07 03:09 | 34.88632 | 34.76348 | 39104 ft | 524 kts | 154° |
| 2026-05-07 03:10 | 34.83396 | 34.80089 | 39104 ft | 524 kts | 154° |
| 2026-05-07 03:10 | 34.76097 | 34.85296 | 39097 ft | 523 kts | 154° |
| 2026-05-07 03:11 | 34.70839 | 34.89040 | 39104 ft | 523 kts | 154° |
| 2026-05-07 03:11 | 34.64564 | 34.93501 | 39103 ft | 523 kts | 154° |
| 2026-05-07 03:12 | 34.58296 | 34.97951 | 39103 ft | 523 kts | 154° |
| 2026-05-07 03:12 | 34.52062 | 35.02509 | 39074 ft | 525 kts | 147° |
| 2026-05-07 03:13 | 34.49364 | 35.05533 | 39104 ft | 533 kts | 134° |
| 2026-05-07 03:13 | 34.47215 | 35.09143 | 39104 ft | 539 kts | 122° |
| 2026-05-07 03:13 | 34.45665 | 35.13294 | 39105 ft | 542 kts | 110° |
| 2026-05-07 03:13 | 34.44513 | 35.17650 | 39111 ft | 543 kts | 109° |
| 2026-05-07 03:14 | 34.42252 | 35.26405 | 39100 ft | 546 kts | 110° |
| 2026-05-07 03:15 | 34.38667 | 35.39509 | 39103 ft | 548 kts | 111° |
| 2026-05-07 03:15 | 34.36212 | 35.48247 | 39104 ft | 549 kts | 111° |
| 2026-05-07 03:16 | 34.33757 | 35.56991 | 39103 ft | 549 kts | 111° |
| 2026-05-07 03:16 | 34.31301 | 35.65738 | 39108 ft | 549 kts | 111° |
| 2026-05-07 03:17 | 34.28560 | 35.74343 | 39111 ft | 547 kts | 117° |
| 2026-05-07 03:17 | 34.25369 | 35.82601 | 39104 ft | 546 kts | 118° |
| 2026-05-07 03:18 | 34.22139 | 35.90897 | 39126 ft | 545 kts | 118° |
| 2026-05-07 03:18 | 34.18946 | 35.99208 | 39128 ft | 545 kts | 118° |
| 2026-05-07 03:19 | 34.15766 | 36.07517 | 39122 ft | 545 kts | 118° |
| 2026-05-07 03:19 | 34.12585 | 36.15800 | 39128 ft | 544 kts | 118° |
| 2026-05-07 03:20 | 34.09400 | 36.24065 | 39132 ft | 543 kts | 118° |
| 2026-05-07 03:20 | 34.06211 | 36.32321 | 39132 ft | 543 kts | 118° |
| 2026-05-07 03:21 | 34.03018 | 36.40568 | 39130 ft | 542 kts | 118° |
| 2026-05-07 03:21 | 34.00017 | 36.48921 | 39130 ft | 543 kts | 116° |
| 2026-05-07 03:22 | 33.97069 | 36.57301 | 39137 ft | 542 kts | 117° |
| 2026-05-07 03:22 | 33.93987 | 36.65578 | 39141 ft | 542 kts | 118° |
| 2026-05-07 03:23 | 33.90851 | 36.73825 | 39139 ft | 541 kts | 118° |
| 2026-05-07 03:23 | 33.87727 | 36.82072 | 39129 ft | 541 kts | 118° |
| 2026-05-07 03:24 | 33.84614 | 36.90316 | 39133 ft | 541 kts | 118° |
| 2026-05-07 03:24 | 33.81517 | 36.98506 | 39128 ft | 541 kts | 118° |
| 2026-05-07 03:25 | 33.78398 | 37.06735 | 39117 ft | 541 kts | 119° |
| 2026-05-07 03:25 | 33.75271 | 37.14958 | 39118 ft | 541 kts | 119° |
| 2026-05-07 03:26 | 33.72138 | 37.23174 | 39121 ft | 541 kts | 119° |
| 2026-05-07 03:26 | 33.69000 | 37.31388 | 39111 ft | 542 kts | 120° |
| 2026-05-07 03:27 | 33.65851 | 37.39607 | 39118 ft | 542 kts | 120° |
| 2026-05-07 03:27 | 33.62695 | 37.47828 | 39106 ft | 543 kts | 120° |
| 2026-05-07 03:28 | 33.59529 | 37.56054 | 39109 ft | 544 kts | 120° |
| 2026-05-07 03:28 | 33.55618 | 37.63604 | 39110 ft | 524 kts | 140° |
| 2026-05-07 03:29 | 33.50001 | 37.68872 | 39113 ft | 504 kts | 160° |
| 2026-05-07 03:29 | 33.43657 | 37.72289 | 39101 ft | 502 kts | 162° |
| 2026-05-07 03:30 | 33.37337 | 37.75863 | 39079 ft | 503 kts | 162° |
| 2026-05-07 03:30 | 33.31047 | 37.79479 | 39086 ft | 501 kts | 162° |
| 2026-05-07 03:31 | 33.24774 | 37.83065 | 39092 ft | 499 kts | 162° |
| 2026-05-07 03:31 | 33.18521 | 37.86621 | 39094 ft | 497 kts | 162° |
| 2026-05-07 03:32 | 33.12290 | 37.90156 | 39092 ft | 495 kts | 162° |
| 2026-05-07 03:32 | 33.06073 | 37.93679 | 39089 ft | 494 kts | 162° |
| 2026-05-07 03:33 | 32.99868 | 37.97192 | 39074 ft | 493 kts | 163° |
| 2026-05-07 03:33 | 32.93677 | 38.00699 | 39080 ft | 493 kts | 162° |
| 2026-05-07 03:34 | 32.87582 | 38.04332 | 39083 ft | 494 kts | 162° |
| 2026-05-07 03:34 | 32.81447 | 38.07992 | 39071 ft | 493 kts | 162° |
| 2026-05-07 03:35 | 32.75313 | 38.11630 | 39081 ft | 492 kts | 162° |
| 2026-05-07 03:35 | 32.69184 | 38.15260 | 39073 ft | 492 kts | 162° |
| 2026-05-07 03:36 | 32.63055 | 38.18887 | 39072 ft | 492 kts | 162° |
| 2026-05-07 03:36 | 32.56926 | 38.22509 | 39049 ft | 491 kts | 162° |
| 2026-05-07 03:37 | 32.50815 | 38.26115 | 39070 ft | 491 kts | 162° |
| 2026-05-07 03:37 | 32.44703 | 38.29717 | 39070 ft | 490 kts | 162° |
| 2026-05-07 03:38 | 32.38596 | 38.33308 | 39072 ft | 490 kts | 162° |
| 2026-05-07 03:38 | 32.32486 | 38.36896 | 39070 ft | 490 kts | 162° |
| 2026-05-07 03:39 | 32.26383 | 38.40477 | 39063 ft | 489 kts | 162° |
| 2026-05-07 03:39 | 32.20280 | 38.44053 | 39060 ft | 489 kts | 162° |
| 2026-05-07 03:40 | 32.14189 | 38.47612 | 39060 ft | 489 kts | 162° |
| 2026-05-07 03:40 | 32.08136 | 38.51146 | 39063 ft | 488 kts | 162° |
| 2026-05-07 03:41 | 32.02049 | 38.54695 | 39054 ft | 488 kts | 162° |
| 2026-05-07 03:41 | 31.95970 | 38.58239 | 39065 ft | 487 kts | 162° |
| 2026-05-07 03:42 | 31.89898 | 38.61768 | 39069 ft | 487 kts | 162° |
| 2026-05-07 03:42 | 31.83817 | 38.65309 | 39064 ft | 487 kts | 162° |
| 2026-05-07 03:43 | 31.77756 | 38.68861 | 39074 ft | 486 kts | 162° |
| 2026-05-07 03:43 | 31.71694 | 38.72379 | 39075 ft | 486 kts | 162° |
| 2026-05-07 03:44 | 31.65752 | 38.76271 | 39083 ft | 492 kts | 157° |
| 2026-05-07 03:44 | 31.59918 | 38.80503 | 39060 ft | 493 kts | 157° |
| 2026-05-07 03:45 | 31.54085 | 38.84724 | 39062 ft | 493 kts | 157° |
| 2026-05-07 03:45 | 31.48240 | 38.88916 | 39059 ft | 493 kts | 157° |
| 2026-05-07 03:46 | 31.42398 | 38.93091 | 39053 ft | 491 kts | 158° |
| 2026-05-07 03:46 | 31.36562 | 38.97253 | 39061 ft | 491 kts | 158° |
| 2026-05-07 03:47 | 31.30722 | 39.01413 | 39064 ft | 491 kts | 158° |
| 2026-05-07 03:47 | 31.24888 | 39.05565 | 39065 ft | 491 kts | 158° |
| 2026-05-07 03:48 | 31.19094 | 39.09683 | 39069 ft | 491 kts | 158° |
| 2026-05-07 03:48 | 31.13258 | 39.13824 | 39049 ft | 490 kts | 158° |
| 2026-05-07 03:49 | 31.07429 | 39.17955 | 39081 ft | 490 kts | 158° |
| 2026-05-07 03:49 | 31.01603 | 39.22077 | 39078 ft | 490 kts | 158° |
| 2026-05-07 03:50 | 30.95770 | 39.26205 | 39063 ft | 490 kts | 158° |
| 2026-05-07 03:50 | 30.89941 | 39.30328 | 39064 ft | 490 kts | 158° |
| 2026-05-07 03:51 | 30.84111 | 39.34446 | 39068 ft | 490 kts | 158° |
| 2026-05-07 03:51 | 30.78284 | 39.38554 | 39063 ft | 490 kts | 158° |
| 2026-05-07 03:52 | 30.72448 | 39.42663 | 39071 ft | 490 kts | 158° |
| 2026-05-07 03:52 | 30.66608 | 39.46769 | 39073 ft | 490 kts | 158° |
| 2026-05-07 03:53 | 30.60766 | 39.50871 | 39077 ft | 491 kts | 158° |
| 2026-05-07 03:53 | 30.54921 | 39.54970 | 39077 ft | 491 kts | 158° |
| 2026-05-07 03:54 | 30.49074 | 39.59065 | 39064 ft | 491 kts | 158° |
| 2026-05-07 03:54 | 30.43323 | 39.63410 | 39081 ft | 502 kts | 150° |
| 2026-05-07 03:55 | 30.38234 | 39.69106 | 39083 ft | 518 kts | 138° |
| 2026-05-07 03:55 | 30.33870 | 39.75818 | 39081 ft | 524 kts | 134° |
| 2026-05-07 03:56 | 30.29579 | 39.82656 | 39063 ft | 525 kts | 135° |
| 2026-05-07 03:56 | 30.25245 | 39.89449 | 39078 ft | 524 kts | 135° |
| 2026-05-07 03:57 | 30.20879 | 39.96206 | 39074 ft | 525 kts | 135° |
| 2026-05-07 03:57 | 30.16525 | 40.02923 | 39083 ft | 526 kts | 135° |
| 2026-05-07 03:58 | 30.12103 | 40.09742 | 39078 ft | 527 kts | 135° |
| 2026-05-07 03:58 | 30.07740 | 40.16466 | 39093 ft | 528 kts | 135° |
| 2026-05-07 03:59 | 30.03293 | 40.23308 | 39088 ft | 529 kts | 135° |
| 2026-05-07 03:59 | 29.98898 | 40.30054 | 39079 ft | 530 kts | 136° |
| 2026-05-07 04:00 | 29.94458 | 40.36841 | 39080 ft | 530 kts | 136° |
| 2026-05-07 04:00 | 29.90015 | 40.43623 | 39089 ft | 530 kts | 136° |
| 2026-05-07 04:01 | 29.85564 | 40.50411 | 39064 ft | 531 kts | 136° |
| 2026-05-07 04:01 | 29.81864 | 40.56047 | 39076 ft | 531 kts | 136° |
| 2026-05-07 04:02 | 29.77409 | 40.62825 | 39079 ft | 531 kts | 135° |
| 2026-05-07 04:02 | 29.73317 | 40.69989 | 39090 ft | 538 kts | 130° |
| 2026-05-07 04:03 | 29.69420 | 40.77354 | 39069 ft | 539 kts | 130° |
| 2026-05-07 04:03 | 29.65511 | 40.84696 | 39077 ft | 538 kts | 130° |
| 2026-05-07 04:04 | 29.61574 | 40.92001 | 39046 ft | 538 kts | 130° |
| 2026-05-07 04:04 | 29.57623 | 40.99301 | 39066 ft | 537 kts | 131° |
| 2026-05-07 04:05 | 29.53671 | 41.06591 | 39072 ft | 538 kts | 131° |
| 2026-05-07 04:05 | 29.49715 | 41.13879 | 39056 ft | 538 kts | 131° |
| 2026-05-07 04:06 | 29.45760 | 41.21159 | 39076 ft | 538 kts | 131° |
| 2026-05-07 04:06 | 29.41794 | 41.28435 | 39059 ft | 538 kts | 131° |
| 2026-05-07 04:07 | 29.37857 | 41.35665 | 39053 ft | 538 kts | 131° |
| 2026-05-07 04:07 | 29.33888 | 41.42924 | 39064 ft | 537 kts | 131° |
| 2026-05-07 04:08 | 29.29914 | 41.50170 | 39069 ft | 537 kts | 131° |
| 2026-05-07 04:08 | 29.25938 | 41.57407 | 39045 ft | 537 kts | 131° |
| 2026-05-07 04:09 | 29.21961 | 41.64638 | 39056 ft | 536 kts | 131° |
| 2026-05-07 04:09 | 29.17984 | 41.71857 | 39062 ft | 536 kts | 131° |
| 2026-05-07 04:10 | 29.13999 | 41.79078 | 39201 ft | 535 kts | 131° |
| 2026-05-07 04:10 | 29.12029 | 41.82651 | 39602 ft | 528 kts | 131° |
| 2026-05-07 04:10 | 29.10084 | 41.86175 | 40059 ft | 520 kts | 131° |
| 2026-05-07 04:10 | 29.08162 | 41.89648 | 40483 ft | 514 kts | 131° |
| 2026-05-07 04:11 | 29.06257 | 41.93084 | 40820 ft | 510 kts | 131° |
| 2026-05-07 04:11 | 29.04360 | 41.96499 | 40976 ft | 510 kts | 131° |
| 2026-05-07 04:11 | 29.02457 | 41.99924 | 40959 ft | 511 kts | 131° |
| 2026-05-07 04:12 | 28.98641 | 42.06789 | 41056 ft | 513 kts | 131° |
| 2026-05-07 04:12 | 28.94808 | 42.13685 | 41043 ft | 515 kts | 131° |
| 2026-05-07 04:13 | 28.90989 | 42.20547 | 41026 ft | 516 kts | 131° |
| 2026-05-07 04:13 | 28.87137 | 42.27457 | 41049 ft | 516 kts | 131° |
| 2026-05-07 04:14 | 28.83282 | 42.34358 | 41044 ft | 516 kts | 131° |
| 2026-05-07 04:14 | 28.79428 | 42.41246 | 41016 ft | 514 kts | 131° |
| 2026-05-07 04:15 | 28.75586 | 42.48103 | 41033 ft | 513 kts | 131° |
| 2026-05-07 04:15 | 28.71746 | 42.54943 | 41037 ft | 512 kts | 131° |
| 2026-05-07 04:16 | 28.67913 | 42.61760 | 41019 ft | 511 kts | 131° |
| 2026-05-07 04:16 | 28.63985 | 42.68448 | 41031 ft | 503 kts | 136° |
| 2026-05-07 04:17 | 28.59384 | 42.74318 | 41036 ft | 495 kts | 142° |
| 2026-05-07 04:17 | 28.54655 | 42.80009 | 41040 ft | 495 kts | 142° |
| 2026-05-07 04:18 | 28.49940 | 42.85728 | 41037 ft | 496 kts | 142° |
| 2026-05-07 04:18 | 28.45235 | 42.91477 | 41017 ft | 497 kts | 142° |
| 2026-05-07 04:19 | 28.40532 | 42.97231 | 41035 ft | 497 kts | 142° |
| 2026-05-07 04:19 | 28.35824 | 43.02978 | 41015 ft | 497 kts | 142° |
| 2026-05-07 04:20 | 28.31107 | 43.08727 | 41032 ft | 497 kts | 142° |
| 2026-05-07 04:20 | 28.26421 | 43.14429 | 41034 ft | 497 kts | 142° |
| 2026-05-07 04:21 | 28.19339 | 43.23032 | 41008 ft | 498 kts | 142° |
| 2026-05-07 04:21 | 28.14617 | 43.28758 | 41036 ft | 497 kts | 142° |
| 2026-05-07 04:22 | 28.09898 | 43.34474 | 41030 ft | 496 kts | 142° |
| 2026-05-07 04:22 | 28.05180 | 43.40179 | 41030 ft | 496 kts | 142° |
| 2026-05-07 04:23 | 28.00463 | 43.45875 | 41012 ft | 495 kts | 142° |
| 2026-05-07 04:23 | 27.95749 | 43.51560 | 41014 ft | 496 kts | 142° |
| 2026-05-07 04:24 | 27.91029 | 43.57245 | 41022 ft | 495 kts | 142° |
| 2026-05-07 04:24 | 27.86318 | 43.62912 | 41026 ft | 496 kts | 142° |
| 2026-05-07 04:25 | 27.81536 | 43.68515 | 41015 ft | 492 kts | 145° |
| 2026-05-07 04:25 | 27.76597 | 43.73836 | 41022 ft | 491 kts | 146° |
| 2026-05-07 04:26 | 27.71635 | 43.79131 | 41014 ft | 491 kts | 146° |
| 2026-05-07 04:26 | 27.66695 | 43.84465 | 41003 ft | 491 kts | 146° |
| 2026-05-07 04:27 | 27.61775 | 43.89807 | 41017 ft | 491 kts | 146° |
| 2026-05-07 04:27 | 27.56850 | 43.95151 | 41010 ft | 492 kts | 146° |
| 2026-05-07 04:28 | 27.51921 | 44.00488 | 41008 ft | 492 kts | 146° |
| 2026-05-07 04:28 | 27.46981 | 44.05829 | 40995 ft | 492 kts | 146° |
| 2026-05-07 04:29 | 27.42042 | 44.11162 | 41014 ft | 492 kts | 146° |
| 2026-05-07 04:29 | 27.37095 | 44.16495 | 40995 ft | 493 kts | 146° |
| 2026-05-07 04:30 | 27.32146 | 44.21825 | 41010 ft | 493 kts | 146° |
| 2026-05-07 04:30 | 27.27188 | 44.27160 | 40989 ft | 493 kts | 146° |
| 2026-05-07 04:31 | 27.22227 | 44.32489 | 40993 ft | 494 kts | 146° |
| 2026-05-07 04:31 | 27.17258 | 44.37820 | 40997 ft | 494 kts | 146° |
| 2026-05-07 04:32 | 27.12288 | 44.43139 | 40972 ft | 494 kts | 146° |
| 2026-05-07 04:32 | 27.07310 | 44.48456 | 40984 ft | 494 kts | 146° |
| 2026-05-07 04:33 | 27.02338 | 44.53765 | 40990 ft | 494 kts | 146° |
| 2026-05-07 04:33 | 26.97357 | 44.59077 | 40987 ft | 494 kts | 146° |
| 2026-05-07 04:34 | 26.92385 | 44.64389 | 40993 ft | 494 kts | 146° |
| 2026-05-07 04:34 | 26.87412 | 44.69699 | 40982 ft | 494 kts | 146° |
| 2026-05-07 04:35 | 26.82470 | 44.74968 | 40987 ft | 494 kts | 146° |
| 2026-05-07 04:35 | 26.77496 | 44.80264 | 40993 ft | 494 kts | 146° |
| 2026-05-07 04:36 | 26.72512 | 44.85545 | 40997 ft | 494 kts | 146° |
| 2026-05-07 04:36 | 26.67518 | 44.90819 | 40992 ft | 494 kts | 146° |
| 2026-05-07 04:37 | 26.62527 | 44.96089 | 40989 ft | 494 kts | 146° |
| 2026-05-07 04:37 | 26.57530 | 45.01359 | 40965 ft | 494 kts | 146° |
| 2026-05-07 04:38 | 26.52540 | 45.06620 | 40979 ft | 493 kts | 146° |
| 2026-05-07 04:38 | 26.47546 | 45.11881 | 40990 ft | 494 kts | 146° |
| 2026-05-07 04:39 | 26.42546 | 45.17143 | 40997 ft | 494 kts | 146° |
| 2026-05-07 04:39 | 26.37539 | 45.22407 | 40999 ft | 494 kts | 146° |
| 2026-05-07 04:40 | 26.32703 | 45.27890 | 40978 ft | 508 kts | 133° |
| 2026-05-07 04:40 | 26.31024 | 45.31422 | 41006 ft | 527 kts | 117° |
| 2026-05-07 04:40 | 26.30158 | 45.35446 | 40979 ft | 544 kts | 99° |
| 2026-05-07 04:41 | 26.30173 | 45.43908 | 40997 ft | 549 kts | 94° |
| 2026-05-07 04:41 | 26.30309 | 45.52431 | 40992 ft | 550 kts | 94° |
| 2026-05-07 04:42 | 26.30332 | 45.60972 | 41009 ft | 552 kts | 95° |
| 2026-05-07 04:42 | 26.30290 | 45.69529 | 41003 ft | 553 kts | 95° |
| 2026-05-07 04:43 | 26.30238 | 45.78053 | 41000 ft | 554 kts | 95° |
| 2026-05-07 04:43 | 26.30190 | 45.86642 | 41008 ft | 554 kts | 95° |
| 2026-05-07 04:44 | 26.30142 | 45.95224 | 41004 ft | 554 kts | 95° |
| 2026-05-07 04:44 | 26.30088 | 46.03798 | 40983 ft | 553 kts | 95° |
| 2026-05-07 04:45 | 26.30028 | 46.12348 | 41011 ft | 551 kts | 95° |
| 2026-05-07 04:45 | 26.29962 | 46.20875 | 41009 ft | 550 kts | 95° |
| 2026-05-07 04:46 | 26.29894 | 46.29391 | 41016 ft | 549 kts | 95° |
| 2026-05-07 04:46 | 26.29854 | 46.37891 | 41010 ft | 548 kts | 95° |
| 2026-05-07 04:47 | 26.29823 | 46.46378 | 41013 ft | 547 kts | 95° |
| 2026-05-07 04:47 | 26.29769 | 46.54859 | 41016 ft | 547 kts | 95° |
| 2026-05-07 04:48 | 26.29671 | 46.63320 | 41002 ft | 546 kts | 96° |
| 2026-05-07 04:48 | 26.29565 | 46.71776 | 41018 ft | 545 kts | 96° |
| 2026-05-07 04:49 | 26.29477 | 46.78797 | 41026 ft | 545 kts | 96° |
| 2026-05-07 04:49 | 26.29370 | 46.87243 | 41026 ft | 545 kts | 96° |
| 2026-05-07 04:50 | 26.29259 | 46.95689 | 41023 ft | 545 kts | 96° |
| 2026-05-07 04:50 | 26.29143 | 47.04132 | 41028 ft | 545 kts | 96° |
| 2026-05-07 04:51 | 26.29021 | 47.12573 | 41031 ft | 545 kts | 96° |
| 2026-05-07 04:51 | 26.28896 | 47.21008 | 41036 ft | 545 kts | 96° |
| 2026-05-07 04:52 | 26.28754 | 47.29446 | 41028 ft | 544 kts | 96° |
| 2026-05-07 04:52 | 26.28601 | 47.37877 | 41028 ft | 544 kts | 96° |
| 2026-05-07 04:53 | 26.28447 | 47.46298 | 41021 ft | 543 kts | 96° |
| 2026-05-07 04:53 | 26.28289 | 47.54659 | 41015 ft | 543 kts | 96° |
| 2026-05-07 04:54 | 26.28127 | 47.63058 | 41021 ft | 542 kts | 96° |
| 2026-05-07 04:54 | 26.28466 | 47.71481 | 41016 ft | 548 kts | 86° |
| 2026-05-07 04:55 | 26.30012 | 47.79826 | 41019 ft | 551 kts | 79° |
| 2026-05-07 04:55 | 26.31804 | 47.88123 | 40994 ft | 551 kts | 79° |
| 2026-05-07 04:56 | 26.33516 | 47.96440 | 40987 ft | 550 kts | 80° |
| 2026-05-07 04:56 | 26.35194 | 48.04773 | 40992 ft | 551 kts | 80° |
| 2026-05-07 04:57 | 26.36883 | 48.13106 | 40983 ft | 551 kts | 80° |
| 2026-05-07 04:57 | 26.38577 | 48.21446 | 40981 ft | 552 kts | 80° |
| 2026-05-07 04:58 | 26.40266 | 48.29794 | 40970 ft | 552 kts | 80° |
| 2026-05-07 04:58 | 26.41950 | 48.38150 | 40971 ft | 552 kts | 80° |
| 2026-05-07 04:59 | 26.43630 | 48.46519 | 40974 ft | 553 kts | 80° |
| 2026-05-07 04:59 | 26.45306 | 48.54894 | 40953 ft | 554 kts | 80° |
| 2026-05-07 05:00 | 26.46967 | 48.63283 | 40948 ft | 553 kts | 82° |
| 2026-05-07 05:00 | 26.47826 | 48.71767 | 40939 ft | 547 kts | 93° |
| 2026-05-07 05:01 | 26.47921 | 48.80259 | 40937 ft | 547 kts | 93° |
| 2026-05-07 05:01 | 26.48067 | 48.88760 | 40928 ft | 548 kts | 92° |
| 2026-05-07 05:02 | 26.48254 | 48.97265 | 40922 ft | 548 kts | 92° |
| 2026-05-07 05:02 | 26.48445 | 49.05776 | 40906 ft | 548 kts | 92° |
| 2026-05-07 05:03 | 26.48627 | 49.14273 | 40913 ft | 547 kts | 92° |
| 2026-05-07 05:03 | 26.48800 | 49.22766 | 40905 ft | 547 kts | 92° |
| 2026-05-07 05:04 | 26.48966 | 49.31189 | 40905 ft | 546 kts | 92° |
| 2026-05-07 05:04 | 26.49128 | 49.39671 | 40891 ft | 546 kts | 92° |
| 2026-05-07 05:05 | 26.49286 | 49.48148 | 40881 ft | 546 kts | 92° |
| 2026-05-07 05:05 | 26.49438 | 49.56621 | 40875 ft | 546 kts | 92° |
| 2026-05-07 05:06 | 26.49586 | 49.65095 | 40869 ft | 546 kts | 92° |
| 2026-05-07 05:06 | 26.49729 | 49.73571 | 40832 ft | 546 kts | 92° |
| 2026-05-07 05:07 | 26.49655 | 49.82016 | 40867 ft | 542 kts | 97° |
| 2026-05-07 05:07 | 26.49162 | 49.90413 | 40854 ft | 542 kts | 98° |
| 2026-05-07 05:08 | 26.48646 | 49.98804 | 40860 ft | 542 kts | 98° |
| 2026-05-07 05:08 | 26.48167 | 50.07133 | 40866 ft | 542 kts | 97° |
| 2026-05-07 05:09 | 26.47695 | 50.15526 | 40864 ft | 542 kts | 97° |
| 2026-05-07 05:09 | 26.47214 | 50.23891 | 40856 ft | 541 kts | 98° |
| 2026-05-07 05:10 | 26.46725 | 50.32271 | 40872 ft | 541 kts | 98° |
| 2026-05-07 05:10 | 26.45688 | 50.40526 | 40865 ft | 534 kts | 108° |
| 2026-05-07 05:11 | 26.43536 | 50.48375 | 40870 ft | 528 kts | 114° |
| 2026-05-07 05:11 | 26.41273 | 50.56173 | 40869 ft | 528 kts | 113° |
| 2026-05-07 05:12 | 26.39084 | 50.63995 | 40857 ft | 528 kts | 113° |
| 2026-05-07 05:12 | 26.36878 | 50.71804 | 40858 ft | 527 kts | 113° |
| 2026-05-07 05:13 | 26.34654 | 50.79583 | 40851 ft | 526 kts | 113° |
| 2026-05-07 05:13 | 26.32410 | 50.87317 | 40859 ft | 525 kts | 113° |
| 2026-05-07 05:14 | 26.30026 | 50.94982 | 40863 ft | 519 kts | 118° |
| 2026-05-07 05:14 | 26.26722 | 51.02023 | 40872 ft | 511 kts | 126° |
| 2026-05-07 05:15 | 26.23187 | 51.08886 | 40846 ft | 511 kts | 126° |
| 2026-05-07 05:15 | 26.19705 | 51.15783 | 40855 ft | 511 kts | 125° |
| 2026-05-07 05:16 | 26.16233 | 51.22695 | 40863 ft | 511 kts | 125° |
| 2026-05-07 05:16 | 26.12767 | 51.29585 | 40859 ft | 511 kts | 125° |
| 2026-05-07 05:17 | 26.09304 | 51.36436 | 40857 ft | 511 kts | 125° |
| 2026-05-07 05:17 | 26.05817 | 51.43320 | 40862 ft | 511 kts | 125° |
| 2026-05-07 05:18 | 26.02324 | 51.50196 | 40848 ft | 511 kts | 125° |
| 2026-05-07 05:18 | 25.98827 | 51.57073 | 40842 ft | 511 kts | 125° |
| 2026-05-07 05:19 | 25.95329 | 51.63945 | 40849 ft | 511 kts | 125° |
| 2026-05-07 05:19 | 25.91827 | 51.70816 | 40854 ft | 511 kts | 125° |
| 2026-05-07 05:20 | 25.88374 | 51.77714 | 40853 ft | 511 kts | 123° |
| 2026-05-07 05:20 | 25.85005 | 51.84666 | 40852 ft | 511 kts | 124° |
| 2026-05-07 05:21 | 25.80312 | 51.95345 | 40860 ft | 514 kts | 119° |
| 2026-05-07 05:22 | 25.77325 | 52.02546 | 40854 ft | 513 kts | 120° |
| 2026-05-07 05:22 | 25.74297 | 52.09716 | 40858 ft | 513 kts | 120° |
| 2026-05-07 05:23 | 25.71274 | 52.16876 | 40818 ft | 514 kts | 120° |
| 2026-05-07 05:23 | 25.69754 | 52.20471 | 40496 ft | 517 kts | 120° |
| 2026-05-07 05:23 | 25.68229 | 52.24076 | 40150 ft | 516 kts | 120° |
| 2026-05-07 05:23 | 25.66703 | 52.27682 | 39826 ft | 516 kts | 120° |
| 2026-05-07 05:24 | 25.65180 | 52.31281 | 39499 ft | 516 kts | 120° |
| 2026-05-07 05:24 | 25.63655 | 52.34880 | 39177 ft | 516 kts | 120° |
| 2026-05-07 05:24 | 25.62122 | 52.38485 | 38766 ft | 519 kts | 120° |
| 2026-05-07 05:24 | 25.60457 | 52.42031 | 38300 ft | 519 kts | 124° |
| 2026-05-07 05:25 | 25.58703 | 52.45468 | 37803 ft | 520 kts | 124° |
| 2026-05-07 05:25 | 25.56908 | 52.48946 | 37318 ft | 521 kts | 124° |
| 2026-05-07 05:25 | 25.55124 | 52.52444 | 36846 ft | 522 kts | 124° |
| 2026-05-07 05:25 | 25.53167 | 52.55764 | 36352 ft | 510 kts | 137° |
| 2026-05-07 05:26 | 25.50549 | 52.58316 | 35886 ft | 496 kts | 154° |
| 2026-05-07 05:26 | 25.47478 | 52.59892 | 35448 ft | 482 kts | 169° |
| 2026-05-07 05:26 | 25.44226 | 52.60545 | 35018 ft | 471 kts | 182° |
| 2026-05-07 05:26 | 25.40972 | 52.60529 | 34606 ft | 466 kts | 189° |
| 2026-05-07 05:27 | 25.37775 | 52.60031 | 34168 ft | 461 kts | 198° |
| 2026-05-07 05:27 | 25.34842 | 52.58749 | 33690 ft | 452 kts | 216° |
| 2026-05-07 05:27 | 25.32547 | 52.56444 | 33224 ft | 445 kts | 235° |
| 2026-05-07 05:27 | 25.31167 | 52.53406 | 32749 ft | 445 kts | 254° |
| 2026-05-07 05:28 | 25.30866 | 52.50005 | 32281 ft | 450 kts | 273° |
| 2026-05-07 05:28 | 25.31691 | 52.46642 | 31837 ft | 460 kts | 292° |
| 2026-05-07 05:28 | 25.33564 | 52.43736 | 31366 ft | 473 kts | 311° |
| 2026-05-07 05:28 | 25.36257 | 52.41619 | 30926 ft | 474 kts | 326° |
| 2026-05-07 05:29 | 25.38954 | 52.39650 | 30475 ft | 460 kts | 311° |
| 2026-05-07 05:29 | 25.40862 | 52.36882 | 30046 ft | 449 kts | 292° |
| 2026-05-07 05:29 | 25.42127 | 52.33738 | 29608 ft | 447 kts | 289° |
| 2026-05-07 05:29 | 25.43407 | 52.30599 | 29053 ft | 447 kts | 291° |
| 2026-05-07 05:30 | 25.44812 | 52.27550 | 28464 ft | 443 kts | 294° |
| 2026-05-07 05:30 | 25.46271 | 52.24619 | 27874 ft | 438 kts | 295° |
| 2026-05-07 05:30 | 25.47778 | 52.21665 | 27289 ft | 433 kts | 296° |
| 2026-05-07 05:30 | 25.49229 | 52.18812 | 26733 ft | 429 kts | 296° |
| 2026-05-07 05:31 | 25.50677 | 52.15936 | 26171 ft | 426 kts | 296° |
| 2026-05-07 05:31 | 25.52105 | 52.13077 | 25631 ft | 424 kts | 296° |
| 2026-05-07 05:31 | 25.53503 | 52.10273 | 24995 ft | 408 kts | 296° |
| 2026-05-07 05:31 | 25.54866 | 52.07533 | 24347 ft | 408 kts | 296° |
| 2026-05-07 05:32 | 25.56242 | 52.04765 | 23727 ft | 413 kts | 297° |
| 2026-05-07 05:32 | 25.57623 | 52.01988 | 23004 ft | 408 kts | 297° |
| 2026-05-07 05:32 | 25.58920 | 51.99248 | 22196 ft | 395 kts | 290° |
| 2026-05-07 05:32 | 25.59407 | 51.97329 | 21670 ft | 388 kts | 276° |
| 2026-05-07 05:33 | 25.59133 | 51.93443 | 20700 ft | 377 kts | 252° |
| 2026-05-07 05:33 | 25.58129 | 51.90781 | 19970 ft | 374 kts | 241° |
| 2026-05-07 05:33 | 25.56642 | 51.88450 | 19194 ft | 369 kts | 225° |
| 2026-05-07 05:33 | 25.54765 | 51.86651 | 18427 ft | 361 kts | 218° |
| 2026-05-07 05:34 | 25.52836 | 51.84910 | 17592 ft | 355 kts | 219° |
| 2026-05-07 05:34 | 25.50964 | 51.83163 | 16705 ft | 349 kts | 220° |
| 2026-05-07 05:34 | 25.49100 | 51.81479 | 15847 ft | 344 kts | 215° |
| 2026-05-07 05:34 | 25.47102 | 51.80068 | 15011 ft | 338 kts | 208° |
| 2026-05-07 05:35 | 25.45066 | 51.78801 | 14204 ft | 334 kts | 208° |
| 2026-05-07 05:35 | 25.43050 | 51.77547 | 13390 ft | 331 kts | 208° |
| 2026-05-07 05:35 | 25.41060 | 51.76304 | 12559 ft | 326 kts | 208° |
| 2026-05-07 05:35 | 25.39110 | 51.75080 | 11752 ft | 317 kts | 208° |
| 2026-05-07 05:36 | 25.37223 | 51.73892 | 10953 ft | 307 kts | 208° |
| 2026-05-07 05:36 | 25.35419 | 51.72756 | 10204 ft | 299 kts | 208° |
| 2026-05-07 05:36 | 25.33630 | 51.71632 | 9528 ft | 294 kts | 208° |
| 2026-05-07 05:36 | 25.31754 | 51.70683 | 9245 ft | 296 kts | 191° |
| 2026-05-07 05:37 | 25.29750 | 51.70730 | 8913 ft | 287 kts | 161° |
| 2026-05-07 05:37 | 25.27912 | 51.71527 | 8603 ft | 282 kts | 156° |
| 2026-05-07 05:37 | 25.26097 | 51.72335 | 8253 ft | 283 kts | 156° |
| 2026-05-07 05:37 | 25.24263 | 51.73141 | 7845 ft | 284 kts | 156° |
| 2026-05-07 05:38 | 25.22428 | 51.73947 | 7449 ft | 283 kts | 156° |
| 2026-05-07 05:38 | 25.20601 | 51.74749 | 7048 ft | 283 kts | 156° |
| 2026-05-07 05:38 | 25.18766 | 51.75556 | 6685 ft | 284 kts | 156° |
| 2026-05-07 05:38 | 25.16973 | 51.76342 | 6256 ft | 269 kts | 156° |
| 2026-05-07 05:39 | 25.15279 | 51.77084 | 5831 ft | 257 kts | 156° |
| 2026-05-07 05:39 | 25.13662 | 51.77793 | 5403 ft | 244 kts | 156° |
| 2026-05-07 05:39 | 25.12109 | 51.78475 | 4996 ft | 238 kts | 156° |
| 2026-05-07 05:39 | 25.10572 | 51.79149 | 4604 ft | 237 kts | 156° |
| 2026-05-07 05:40 | 25.09041 | 51.79820 | 4198 ft | 236 kts | 156° |
| 2026-05-07 05:40 | 25.08025 | 51.80265 | 3941 ft | 239 kts | 156° |
| 2026-05-07 05:40 | 25.06462 | 51.80929 | 3570 ft | 241 kts | 157° |
| 2026-05-07 05:40 | 25.04910 | 51.81563 | 3420 ft | 235 kts | 158° |
| 2026-05-07 05:41 | 25.03386 | 51.82184 | 3411 ft | 233 kts | 158° |
| 2026-05-07 05:41 | 25.01854 | 51.82810 | 3418 ft | 237 kts | 158° |
| 2026-05-07 05:41 | 25.00304 | 51.83444 | 3418 ft | 237 kts | 157° |
| 2026-05-07 05:41 | 24.98775 | 51.84061 | 3410 ft | 230 kts | 157° |
| 2026-05-07 05:42 | 24.97271 | 51.84599 | 3389 ft | 228 kts | 169° |
| 2026-05-07 05:42 | 24.95681 | 51.84415 | 3416 ft | 235 kts | 202° |
| 2026-05-07 05:42 | 24.94408 | 51.83320 | 3410 ft | 235 kts | 236° |
| 2026-05-07 05:42 | 24.93857 | 51.81661 | 3412 ft | 232 kts | 269° |
| 2026-05-07 05:43 | 24.94184 | 51.79964 | 3405 ft | 226 kts | 303° |
| 2026-05-07 05:43 | 24.95125 | 51.78622 | 3413 ft | 221 kts | 315° |
| 2026-05-07 05:43 | 24.96190 | 51.77384 | 3414 ft | 224 kts | 317° |
| 2026-05-07 05:43 | 24.97283 | 51.76145 | 3411 ft | 226 kts | 317° |
| 2026-05-07 05:44 | 24.98399 | 51.74929 | 3400 ft | 222 kts | 326° |
| 2026-05-07 05:44 | 24.99734 | 51.74120 | 3408 ft | 218 kts | 340° |
| 2026-05-07 05:44 | 25.01136 | 51.73469 | 3411 ft | 219 kts | 339° |
| 2026-05-07 05:44 | 25.02544 | 51.72825 | 3409 ft | 219 kts | 340° |
| 2026-05-07 05:45 | 25.03957 | 51.72195 | 3403 ft | 219 kts | 340° |
| 2026-05-07 05:45 | 25.05367 | 51.71575 | 3395 ft | 218 kts | 341° |
| 2026-05-07 05:45 | 25.06769 | 51.70958 | 3395 ft | 216 kts | 341° |
| 2026-05-07 05:45 | 25.08161 | 51.70345 | 3398 ft | 214 kts | 341° |
| 2026-05-07 05:46 | 25.09539 | 51.69739 | 3157 ft | 213 kts | 341° |
| 2026-05-07 05:46 | 25.10911 | 51.69135 | 2906 ft | 212 kts | 341° |
| 2026-05-07 05:46 | 25.12275 | 51.68533 | 2624 ft | 211 kts | 341° |
| 2026-05-07 05:46 | 25.13613 | 51.67943 | 2371 ft | 209 kts | 341° |
| 2026-05-07 05:47 | 25.14958 | 51.67348 | 2137 ft | 206 kts | 342° |
| 2026-05-07 05:47 | 25.16264 | 51.66772 | 1866 ft | 197 kts | 342° |
| 2026-05-07 05:47 | 25.17491 | 51.66230 | 1614 ft | 181 kts | 342° |
| 2026-05-07 05:47 | 25.18597 | 51.65742 | 1412 ft | 161 kts | 341° |
| 2026-05-07 05:48 | 25.19583 | 51.65306 | 1212 ft | 144 kts | 341° |
| 2026-05-07 05:48 | 25.20500 | 51.64905 | 1009 ft | 142 kts | 340° |
| 2026-05-07 05:48 | 25.21409 | 51.64493 | 806 ft | 139 kts | 340° |
| 2026-05-07 05:48 | 25.22288 | 51.64088 | 703 ft | 135 kts | 342° |
| 2026-05-07 05:49 | 25.23170 | 51.63715 | 553 ft | 135 kts | 342° |
| 2026-05-07 05:49 | 25.24037 | 51.63335 | 362 ft | 134 kts | 343° |
| 2026-05-07 05:49 | 25.24911 | 51.62956 | 213 ft | 136 kts | 341° |
| 2026-05-07 05:49 | 25.25783 | 51.62571 | 48 ft | 135 kts | 340° |
| 2026-05-07 05:50 | 25.26577 | 51.62225 | 30 ft | 106 kts | 338° |
| 2026-05-07 05:50 | 25.27117 | 51.61986 | 29 ft | 61 kts | 338° |
| 2026-05-07 05:50 | 25.27342 | 51.61865 | 31 ft | 19 kts | 322° |
| 2026-05-07 05:50 | 25.27421 | 51.61779 | 32 ft | 11 kts | 313° |
| 2026-05-07 05:51 | 25.27461 | 51.61714 | 33 ft | 7 kts | 285° |
| 2026-05-07 05:51 | 25.27442 | 51.61664 | 33 ft | 7 kts | 219° |
| 2026-05-07 05:51 | 25.27386 | 51.61665 | 33 ft | 11 kts | 160° |
| 2026-05-07 05:51 | 25.27316 | 51.61695 | 33 ft | 11 kts | 158° |
| 2026-05-07 05:52 | 25.27235 | 51.61731 | 33 ft | 15 kts | 158° |
| 2026-05-07 05:52 | 25.27157 | 51.61766 | 33 ft | 10 kts | 159° |
| 2026-05-07 05:52 | 25.27107 | 51.61755 | 33 ft | 7 kts | 219° |
| 2026-05-07 05:52 | 25.27091 | 51.61715 | 34 ft | 6 kts | 252° |
| 2026-05-07 05:53 | 25.27077 | 51.61673 | 34 ft | 7 kts | 249° |
| 2026-05-07 05:53 | 25.27057 | 51.61615 | 34 ft | 8 kts | 248° |
| 2026-05-07 05:53 | 25.27035 | 51.61556 | 34 ft | 8 kts | 247° |
| 2026-05-07 05:53 | 25.27000 | 51.61472 | 34 ft | 11 kts | 238° |
| 2026-05-07 05:54 | 25.26950 | 51.61429 | 35 ft | 7 kts | 206° |
| 2026-05-07 05:54 | 25.26904 | 51.61407 | 35 ft | 8 kts | 202° |
| 2026-05-07 05:54 | 25.26854 | 51.61383 | 35 ft | 7 kts | 204° |
| 2026-05-07 05:54 | 25.26819 | 51.61364 | 35 ft | 5 kts | 207° |
| 2026-05-07 05:55 | 25.26805 | 51.61357 | 35 ft | 0 kts | 204° |
| 2026-05-07 05:55 | 25.26798 | 51.61354 | 35 ft | 4 kts | 198° |
| 2026-05-07 05:55 | 25.26782 | 51.61348 | 35 ft | 2 kts | 199° |
| 2026-05-07 05:55 | 25.26750 | 51.61332 | 35 ft | 6 kts | 216° |
| 2026-05-07 05:56 | 25.26736 | 51.61291 | 35 ft | 6 kts | 263° |
| 2026-05-07 05:56 | 25.26733 | 51.61239 | 35 ft | 6 kts | 266° |
| 2026-05-07 05:56 | 25.26732 | 51.61217 | 35 ft | 0 kts | 267° |